sensor_id;sensor_type;location;lat;lon;timestamp;P1;durP1;ratioP1;P2;durP2;ratioP2
65656;SDS011;57397;50.096;14.404;2023-06-14T00:00:15;3.03;;;2.47;;
65656;SDS011;57397;50.096;14.404;2023-06-14T00:02:41;3.80;;;2.95;;
65656;SDS011;57397;50.096;14.404;2023-06-14T00:05:07;3.20;;;2.65;;
65656;SDS011;57397;50.096;14.404;2023-06-14T00:07:36;3.20;;;2.70;;
65656;SDS011;57397;50.096;14.404;2023-06-14T00:10:12;2.75;;;2.55;;
65656;SDS011;57397;50.096;14.404;2023-06-14T00:12:37;3.05;;;2.70;;
65656;SDS011;57397;50.096;14.404;2023-06-14T00:15:04;3.13;;;2.58;;
65656;SDS011;57397;50.096;14.404;2023-06-14T00:17:30;3.53;;;2.58;;
65656;SDS011;57397;50.096;14.404;2023-06-14T00:19:56;3.00;;;2.70;;
65656;SDS011;57397;50.096;14.404;2023-06-14T00:22:23;4.35;;;2.53;;
65656;SDS011;57397;50.096;14.404;2023-06-14T00:24:54;2.67;;;2.45;;
65656;SDS011;57397;50.096;14.404;2023-06-14T00:27:19;3.15;;;2.70;;
65656;SDS011;57397;50.096;14.404;2023-06-14T00:29:45;2.95;;;2.60;;
65656;SDS011;57397;50.096;14.404;2023-06-14T00:32:11;3.05;;;2.60;;
65656;SDS011;57397;50.096;14.404;2023-06-14T00:34:37;3.38;;;2.75;;
65656;SDS011;57397;50.096;14.404;2023-06-14T00:37:02;2.78;;;2.47;;
65656;SDS011;57397;50.096;14.404;2023-06-14T00:39:28;2.70;;;2.47;;
65656;SDS011;57397;50.096;14.404;2023-06-14T00:41:54;3.47;;;2.65;;
65656;SDS011;57397;50.096;14.404;2023-06-14T00:44:19;2.92;;;2.63;;
65656;SDS011;57397;50.096;14.404;2023-06-14T00:46:45;2.75;;;2.47;;
65656;SDS011;57397;50.096;14.404;2023-06-14T00:49:11;3.00;;;2.70;;
65656;SDS011;57397;50.096;14.404;2023-06-14T00:51:38;2.45;;;2.25;;
65656;SDS011;57397;50.096;14.404;2023-06-14T00:54:04;3.00;;;2.63;;
65656;SDS011;57397;50.096;14.404;2023-06-14T00:56:30;3.65;;;2.47;;
65656;SDS011;57397;50.096;14.404;2023-06-14T00:58:56;2.70;;;2.40;;
65656;SDS011;57397;50.096;14.404;2023-06-14T01:01:21;2.88;;;2.55;;
65656;SDS011;57397;50.096;14.404;2023-06-14T01:03:47;3.60;;;2.58;;
65656;SDS011;57397;50.096;14.404;2023-06-14T01:06:15;3.33;;;2.80;;
65656;SDS011;57397;50.096;14.404;2023-06-14T01:12:30;2.63;;;2.38;;
65656;SDS011;57397;50.096;14.404;2023-06-14T01:15:22;2.90;;;2.30;;
65656;SDS011;57397;50.096;14.404;2023-06-14T01:17:51;3.92;;;2.88;;
65656;SDS011;57397;50.096;14.404;2023-06-14T01:20:21;3.25;;;2.95;;
65656;SDS011;57397;50.096;14.404;2023-06-14T01:22:50;2.67;;;2.47;;
65656;SDS011;57397;50.096;14.404;2023-06-14T01:25:18;2.70;;;2.50;;
65656;SDS011;57397;50.096;14.404;2023-06-14T01:27:47;3.03;;;2.50;;
65656;SDS011;57397;50.096;14.404;2023-06-14T01:30:15;3.10;;;2.80;;
65656;SDS011;57397;50.096;14.404;2023-06-14T01:32:42;3.42;;;2.80;;
65656;SDS011;57397;50.096;14.404;2023-06-14T01:35:09;2.80;;;2.50;;
65656;SDS011;57397;50.096;14.404;2023-06-14T01:37:34;2.90;;;2.60;;
65656;SDS011;57397;50.096;14.404;2023-06-14T01:40:01;2.80;;;2.45;;
65656;SDS011;57397;50.096;14.404;2023-06-14T01:42:29;3.00;;;2.70;;
65656;SDS011;57397;50.096;14.404;2023-06-14T01:44:55;3.85;;;2.58;;
65656;SDS011;57397;50.096;14.404;2023-06-14T01:47:21;3.10;;;2.55;;
65656;SDS011;57397;50.096;14.404;2023-06-14T01:49:47;2.90;;;2.60;;
65656;SDS011;57397;50.096;14.404;2023-06-14T01:52:12;2.83;;;2.53;;
65656;SDS011;57397;50.096;14.404;2023-06-14T01:54:38;3.13;;;2.83;;
65656;SDS011;57397;50.096;14.404;2023-06-14T01:57:07;3.10;;;2.70;;
65656;SDS011;57397;50.096;14.404;2023-06-14T01:59:33;3.20;;;2.78;;
65656;SDS011;57397;50.096;14.404;2023-06-14T02:02:01;2.95;;;2.47;;
65656;SDS011;57397;50.096;14.404;2023-06-14T02:04:28;2.88;;;2.35;;
65656;SDS011;57397;50.096;14.404;2023-06-14T02:06:53;2.67;;;2.47;;
65656;SDS011;57397;50.096;14.404;2023-06-14T02:09:19;3.38;;;2.60;;
65656;SDS011;57397;50.096;14.404;2023-06-14T02:11:44;2.90;;;2.60;;
65656;SDS011;57397;50.096;14.404;2023-06-14T02:14:10;2.95;;;2.58;;
65656;SDS011;57397;50.096;14.404;2023-06-14T02:16:37;3.30;;;2.88;;
65656;SDS011;57397;50.096;14.404;2023-06-14T02:19:04;3.28;;;2.70;;
65656;SDS011;57397;50.096;14.404;2023-06-14T02:21:32;3.65;;;2.70;;
65656;SDS011;57397;50.096;14.404;2023-06-14T02:23:58;3.25;;;2.80;;
65656;SDS011;57397;50.096;14.404;2023-06-14T02:26:24;2.63;;;2.42;;
65656;SDS011;57397;50.096;14.404;2023-06-14T02:28:49;3.33;;;2.58;;
65656;SDS011;57397;50.096;14.404;2023-06-14T02:31:15;3.10;;;2.70;;
65656;SDS011;57397;50.096;14.404;2023-06-14T02:33:41;3.20;;;2.90;;
65656;SDS011;57397;50.096;14.404;2023-06-14T02:36:06;3.50;;;2.78;;
65656;SDS011;57397;50.096;14.404;2023-06-14T02:38:33;2.85;;;2.55;;
65656;SDS011;57397;50.096;14.404;2023-06-14T02:40:59;4.20;;;2.78;;
65656;SDS011;57397;50.096;14.404;2023-06-14T02:43:28;3.30;;;2.75;;
65656;SDS011;57397;50.096;14.404;2023-06-14T02:45:54;2.95;;;2.65;;
65656;SDS011;57397;50.096;14.404;2023-06-14T02:48:20;3.00;;;2.70;;
65656;SDS011;57397;50.096;14.404;2023-06-14T02:50:45;2.92;;;2.63;;
65656;SDS011;57397;50.096;14.404;2023-06-14T02:53:11;2.90;;;2.47;;
65656;SDS011;57397;50.096;14.404;2023-06-14T02:55:38;3.85;;;2.95;;
65656;SDS011;57397;50.096;14.404;2023-06-14T02:58:05;3.15;;;2.63;;
65656;SDS011;57397;50.096;14.404;2023-06-14T03:00:30;2.78;;;2.50;;
65656;SDS011;57397;50.096;14.404;2023-06-14T03:02:56;3.03;;;2.55;;
65656;SDS011;57397;50.096;14.404;2023-06-14T03:05:22;2.67;;;2.35;;
65656;SDS011;57397;50.096;14.404;2023-06-14T03:07:48;2.97;;;2.50;;
65656;SDS011;57397;50.096;14.404;2023-06-14T03:10:15;2.78;;;2.47;;
65656;SDS011;57397;50.096;14.404;2023-06-14T03:12:41;2.85;;;2.53;;
65656;SDS011;57397;50.096;14.404;2023-06-14T03:15:06;3.95;;;2.58;;
65656;SDS011;57397;50.096;14.404;2023-06-14T03:17:33;3.05;;;2.45;;
65656;SDS011;57397;50.096;14.404;2023-06-14T03:20:00;3.28;;;2.72;;
65656;SDS011;57397;50.096;14.404;2023-06-14T03:22:26;3.63;;;2.45;;
65656;SDS011;57397;50.096;14.404;2023-06-14T03:24:51;2.95;;;2.50;;
65656;SDS011;57397;50.096;14.404;2023-06-14T03:27:19;3.03;;;2.50;;
65656;SDS011;57397;50.096;14.404;2023-06-14T03:29:44;2.40;;;2.20;;
65656;SDS011;57397;50.096;14.404;2023-06-14T03:32:10;2.80;;;2.50;;
65656;SDS011;57397;50.096;14.404;2023-06-14T03:34:39;3.78;;;2.40;;
65656;SDS011;57397;50.096;14.404;2023-06-14T03:37:06;2.95;;;2.45;;
65656;SDS011;57397;50.096;14.404;2023-06-14T03:39:31;2.72;;;2.50;;
65656;SDS011;57397;50.096;14.404;2023-06-14T03:41:57;2.55;;;2.35;;
65656;SDS011;57397;50.096;14.404;2023-06-14T03:44:22;2.70;;;2.50;;
65656;SDS011;57397;50.096;14.404;2023-06-14T03:46:48;3.80;;;2.22;;
65656;SDS011;57397;50.096;14.404;2023-06-14T03:49:13;2.80;;;2.50;;
65656;SDS011;57397;50.096;14.404;2023-06-14T03:51:41;2.92;;;2.40;;
65656;SDS011;57397;50.096;14.404;2023-06-14T03:54:07;2.75;;;2.50;;
65656;SDS011;57397;50.096;14.404;2023-06-14T03:56:32;3.30;;;2.72;;
65656;SDS011;57397;50.096;14.404;2023-06-14T03:58:58;2.88;;;2.50;;
65656;SDS011;57397;50.096;14.404;2023-06-14T04:01:23;2.90;;;2.60;;
65656;SDS011;57397;50.096;14.404;2023-06-14T04:03:52;3.60;;;2.38;;
65656;SDS011;57397;50.096;14.404;2023-06-14T04:06:18;2.80;;;2.40;;
65656;SDS011;57397;50.096;14.404;2023-06-14T04:08:44;2.67;;;2.40;;
65656;SDS011;57397;50.096;14.404;2023-06-14T04:11:10;2.95;;;2.42;;
65656;SDS011;57397;50.096;14.404;2023-06-14T04:13:36;2.55;;;2.35;;
65656;SDS011;57397;50.096;14.404;2023-06-14T04:16:03;2.83;;;2.22;;
65656;SDS011;57397;50.096;14.404;2023-06-14T04:18:28;3.00;;;2.40;;
65656;SDS011;57397;50.096;14.404;2023-06-14T04:20:55;3.00;;;2.38;;
65656;SDS011;57397;50.096;14.404;2023-06-14T04:23:22;3.03;;;2.38;;
65656;SDS011;57397;50.096;14.404;2023-06-14T04:25:48;2.95;;;2.40;;
65656;SDS011;57397;50.096;14.404;2023-06-14T04:28:14;3.45;;;2.30;;
65656;SDS011;57397;50.096;14.404;2023-06-14T04:30:43;2.45;;;2.25;;
65656;SDS011;57397;50.096;14.404;2023-06-14T04:33:09;2.83;;;2.53;;
65656;SDS011;57397;50.096;14.404;2023-06-14T04:35:36;3.40;;;2.30;;
65656;SDS011;57397;50.096;14.404;2023-06-14T04:38:03;2.35;;;2.15;;
65656;SDS011;57397;50.096;14.404;2023-06-14T04:40:35;3.08;;;2.40;;
65656;SDS011;57397;50.096;14.404;2023-06-14T04:43:11;2.65;;;2.28;;
65656;SDS011;57397;50.096;14.404;2023-06-14T04:45:42;2.55;;;2.35;;
65656;SDS011;57397;50.096;14.404;2023-06-14T04:48:10;2.92;;;2.45;;
65656;SDS011;57397;50.096;14.404;2023-06-14T04:50:36;3.28;;;2.70;;
65656;SDS011;57397;50.096;14.404;2023-06-14T04:53:02;3.10;;;2.60;;
65656;SDS011;57397;50.096;14.404;2023-06-14T04:55:28;2.53;;;2.00;;
65656;SDS011;57397;50.096;14.404;2023-06-14T04:57:53;2.72;;;2.40;;
65656;SDS011;57397;50.096;14.404;2023-06-14T05:00:20;2.70;;;2.30;;
65656;SDS011;57397;50.096;14.404;2023-06-14T05:02:45;2.47;;;2.28;;
65656;SDS011;57397;50.096;14.404;2023-06-14T05:05:12;2.85;;;2.40;;
65656;SDS011;57397;50.096;14.404;2023-06-14T05:07:37;2.78;;;2.35;;
65656;SDS011;57397;50.096;14.404;2023-06-14T05:10:03;2.65;;;2.28;;
65656;SDS011;57397;50.096;14.404;2023-06-14T05:12:30;3.17;;;2.28;;
65656;SDS011;57397;50.096;14.404;2023-06-14T05:14:57;3.40;;;2.20;;
65656;SDS011;57397;50.096;14.404;2023-06-14T05:17:23;3.28;;;2.42;;
65656;SDS011;57397;50.096;14.404;2023-06-14T05:19:49;3.58;;;2.10;;
65656;SDS011;57397;50.096;14.404;2023-06-14T05:22:14;3.58;;;2.40;;
65656;SDS011;57397;50.096;14.404;2023-06-14T05:24:40;3.35;;;2.60;;
65656;SDS011;57397;50.096;14.404;2023-06-14T05:27:06;2.90;;;2.15;;
65656;SDS011;57397;50.096;14.404;2023-06-14T05:29:32;2.80;;;2.33;;
65656;SDS011;57397;50.096;14.404;2023-06-14T05:31:57;3.28;;;2.35;;
65656;SDS011;57397;50.096;14.404;2023-06-14T05:34:23;3.42;;;2.33;;
65656;SDS011;57397;50.096;14.404;2023-06-14T05:36:49;2.83;;;2.40;;
65656;SDS011;57397;50.096;14.404;2023-06-14T05:39:14;3.35;;;2.45;;
65656;SDS011;57397;50.096;14.404;2023-06-14T05:41:40;3.15;;;2.35;;
65656;SDS011;57397;50.096;14.404;2023-06-14T05:44:06;2.40;;;2.20;;
65656;SDS011;57397;50.096;14.404;2023-06-14T05:46:32;3.15;;;2.55;;
65656;SDS011;57397;50.096;14.404;2023-06-14T05:48:58;2.58;;;2.30;;
65656;SDS011;57397;50.096;14.404;2023-06-14T05:51:25;2.53;;;2.00;;
65656;SDS011;57397;50.096;14.404;2023-06-14T05:53:51;2.85;;;2.38;;
65656;SDS011;57397;50.096;14.404;2023-06-14T05:56:17;2.65;;;2.03;;
65656;SDS011;57397;50.096;14.404;2023-06-14T05:58:44;2.60;;;2.28;;
65656;SDS011;57397;50.096;14.404;2023-06-14T06:01:10;2.80;;;2.30;;
65656;SDS011;57397;50.096;14.404;2023-06-14T06:03:36;3.10;;;2.38;;
65656;SDS011;57397;50.096;14.404;2023-06-14T06:06:02;2.72;;;2.45;;
65656;SDS011;57397;50.096;14.404;2023-06-14T06:08:31;2.80;;;2.30;;
65656;SDS011;57397;50.096;14.404;2023-06-14T06:10:59;2.35;;;2.03;;
65656;SDS011;57397;50.096;14.404;2023-06-14T06:13:25;2.80;;;2.35;;
65656;SDS011;57397;50.096;14.404;2023-06-14T06:15:51;3.97;;;2.47;;
65656;SDS011;57397;50.096;14.404;2023-06-14T06:18:17;2.75;;;2.20;;
65656;SDS011;57397;50.096;14.404;2023-06-14T06:20:42;3.25;;;2.40;;
65656;SDS011;57397;50.096;14.404;2023-06-14T06:23:09;2.85;;;2.35;;
65656;SDS011;57397;50.096;14.404;2023-06-14T06:25:34;3.45;;;2.45;;
65656;SDS011;57397;50.096;14.404;2023-06-14T06:28:00;2.40;;;2.05;;
65656;SDS011;57397;50.096;14.404;2023-06-14T06:30:27;2.60;;;2.30;;
65656;SDS011;57397;50.096;14.404;2023-06-14T06:32:53;2.50;;;2.30;;
65656;SDS011;57397;50.096;14.404;2023-06-14T06:35:20;2.30;;;2.10;;
65656;SDS011;57397;50.096;14.404;2023-06-14T06:37:46;4.07;;;2.33;;
65656;SDS011;57397;50.096;14.404;2023-06-14T06:40:11;2.97;;;2.50;;
65656;SDS011;57397;50.096;14.404;2023-06-14T06:42:37;2.30;;;2.10;;
65656;SDS011;57397;50.096;14.404;2023-06-14T06:45:03;2.92;;;2.30;;
65656;SDS011;57397;50.096;14.404;2023-06-14T06:47:29;3.45;;;2.40;;
65656;SDS011;57397;50.096;14.404;2023-06-14T06:49:55;2.30;;;2.10;;
65656;SDS011;57397;50.096;14.404;2023-06-14T06:52:20;2.33;;;2.13;;
65656;SDS011;57397;50.096;14.404;2023-06-14T06:54:46;2.47;;;2.25;;
65656;SDS011;57397;50.096;14.404;2023-06-14T06:57:11;2.60;;;2.30;;
65656;SDS011;57397;50.096;14.404;2023-06-14T06:59:38;2.83;;;2.30;;
65656;SDS011;57397;50.096;14.404;2023-06-14T07:02:04;2.45;;;2.10;;
65656;SDS011;57397;50.096;14.404;2023-06-14T07:04:30;2.50;;;2.13;;
65656;SDS011;57397;50.096;14.404;2023-06-14T07:06:56;2.35;;;2.13;;
65656;SDS011;57397;50.096;14.404;2023-06-14T07:09:21;2.88;;;2.30;;
65656;SDS011;57397;50.096;14.404;2023-06-14T07:11:48;3.50;;;2.13;;
65656;SDS011;57397;50.096;14.404;2023-06-14T07:14:14;2.72;;;2.25;;
65656;SDS011;57397;50.096;14.404;2023-06-14T07:16:39;2.70;;;2.50;;
65656;SDS011;57397;50.096;14.404;2023-06-14T07:19:06;2.45;;;2.25;;
65656;SDS011;57397;50.096;14.404;2023-06-14T07:21:31;2.38;;;2.10;;
65656;SDS011;57397;50.096;14.404;2023-06-14T07:23:57;2.50;;;2.00;;
65656;SDS011;57397;50.096;14.404;2023-06-14T07:26:23;2.38;;;2.00;;
65656;SDS011;57397;50.096;14.404;2023-06-14T07:28:48;2.72;;;2.30;;
65656;SDS011;57397;50.096;14.404;2023-06-14T07:31:17;2.20;;;2.00;;
65656;SDS011;57397;50.096;14.404;2023-06-14T07:33:44;2.92;;;2.13;;
65656;SDS011;57397;50.096;14.404;2023-06-14T07:36:10;2.55;;;2.30;;
65656;SDS011;57397;50.096;14.404;2023-06-14T07:38:35;2.45;;;2.10;;
65656;SDS011;57397;50.096;14.404;2023-06-14T07:41:01;2.78;;;2.17;;
65656;SDS011;57397;50.096;14.404;2023-06-14T07:43:27;2.13;;;1.92;;
65656;SDS011;57397;50.096;14.404;2023-06-14T07:45:54;2.58;;;2.20;;
65656;SDS011;57397;50.096;14.404;2023-06-14T07:48:20;2.20;;;2.00;;
65656;SDS011;57397;50.096;14.404;2023-06-14T07:50:45;2.65;;;2.15;;
65656;SDS011;57397;50.096;14.404;2023-06-14T07:53:11;2.35;;;2.05;;
65656;SDS011;57397;50.096;14.404;2023-06-14T07:55:37;2.20;;;2.00;;
65656;SDS011;57397;50.096;14.404;2023-06-14T07:58:03;2.30;;;2.10;;
65656;SDS011;57397;50.096;14.404;2023-06-14T08:00:30;2.30;;;2.10;;
65656;SDS011;57397;50.096;14.404;2023-06-14T08:02:56;2.42;;;2.10;;
65656;SDS011;57397;50.096;14.404;2023-06-14T08:05:24;2.95;;;2.30;;
65656;SDS011;57397;50.096;14.404;2023-06-14T08:07:52;2.85;;;2.10;;
65656;SDS011;57397;50.096;14.404;2023-06-14T08:10:18;2.80;;;2.10;;
65656;SDS011;57397;50.096;14.404;2023-06-14T08:12:44;2.40;;;2.15;;
65656;SDS011;57397;50.096;14.404;2023-06-14T08:15:09;2.53;;;2.30;;
65656;SDS011;57397;50.096;14.404;2023-06-14T08:17:35;2.42;;;2.17;;
65656;SDS011;57397;50.096;14.404;2023-06-14T08:20:02;2.38;;;2.17;;
65656;SDS011;57397;50.096;14.404;2023-06-14T08:22:32;2.25;;;2.03;;
65656;SDS011;57397;50.096;14.404;2023-06-14T08:24:59;2.42;;;2.22;;
65656;SDS011;57397;50.096;14.404;2023-06-14T08:27:26;2.38;;;2.17;;
65656;SDS011;57397;50.096;14.404;2023-06-14T08:29:52;2.90;;;2.15;;
65656;SDS011;57397;50.096;14.404;2023-06-14T08:32:17;2.55;;;2.17;;
65656;SDS011;57397;50.096;14.404;2023-06-14T08:34:43;2.90;;;2.38;;
65656;SDS011;57397;50.096;14.404;2023-06-14T08:37:08;2.42;;;2.13;;
65656;SDS011;57397;50.096;14.404;2023-06-14T08:39:35;2.50;;;2.10;;
65656;SDS011;57397;50.096;14.404;2023-06-14T08:42:01;2.38;;;2.03;;
65656;SDS011;57397;50.096;14.404;2023-06-14T08:44:28;2.72;;;2.13;;
65656;SDS011;57397;50.096;14.404;2023-06-14T08:46:58;2.50;;;2.10;;
65656;SDS011;57397;50.096;14.404;2023-06-14T08:49:24;2.58;;;2.17;;
65656;SDS011;57397;50.096;14.404;2023-06-14T08:51:55;3.03;;;2.13;;
65656;SDS011;57397;50.096;14.404;2023-06-14T08:54:22;3.22;;;2.28;;
65656;SDS011;57397;50.096;14.404;2023-06-14T08:56:49;2.10;;;1.90;;
65656;SDS011;57397;50.096;14.404;2023-06-14T08:59:16;2.30;;;2.10;;
65656;SDS011;57397;50.096;14.404;2023-06-14T09:01:43;3.03;;;2.00;;
65656;SDS011;57397;50.096;14.404;2023-06-14T09:04:10;2.38;;;2.15;;
65656;SDS011;57397;50.096;14.404;2023-06-14T09:06:36;2.50;;;2.25;;
65656;SDS011;57397;50.096;14.404;2023-06-14T09:09:02;2.47;;;2.20;;
65656;SDS011;57397;50.096;14.404;2023-06-14T09:11:29;2.28;;;2.05;;
65656;SDS011;57397;50.096;14.404;2023-06-14T09:13:55;2.00;;;1.80;;
65656;SDS011;57397;50.096;14.404;2023-06-14T09:16:21;2.45;;;2.13;;
65656;SDS011;57397;50.096;14.404;2023-06-14T09:18:47;2.25;;;2.05;;
65656;SDS011;57397;50.096;14.404;2023-06-14T09:21:16;2.15;;;1.95;;
65656;SDS011;57397;50.096;14.404;2023-06-14T09:23:46;2.20;;;2.00;;
65656;SDS011;57397;50.096;14.404;2023-06-14T09:26:16;2.67;;;2.13;;
65656;SDS011;57397;50.096;14.404;2023-06-14T09:28:49;2.38;;;2.08;;
65656;SDS011;57397;50.096;14.404;2023-06-14T09:31:19;2.75;;;2.10;;
65656;SDS011;57397;50.096;14.404;2023-06-14T09:33:45;2.70;;;2.20;;
65656;SDS011;57397;50.096;14.404;2023-06-14T09:36:20;2.40;;;2.03;;
65656;SDS011;57397;50.096;14.404;2023-06-14T09:38:57;3.08;;;2.13;;
65656;SDS011;57397;50.096;14.404;2023-06-14T09:41:36;2.35;;;1.95;;
65656;SDS011;57397;50.096;14.404;2023-06-14T09:44:05;3.17;;;2.17;;
65656;SDS011;57397;50.096;14.404;2023-06-14T09:46:35;2.67;;;2.47;;
65656;SDS011;57397;50.096;14.404;2023-06-14T09:49:01;2.22;;;1.90;;
65656;SDS011;57397;50.096;14.404;2023-06-14T09:51:30;2.17;;;1.95;;
65656;SDS011;57397;50.096;14.404;2023-06-14T09:54:00;2.83;;;1.88;;
65656;SDS011;57397;50.096;14.404;2023-06-14T09:56:31;2.60;;;2.10;;
65656;SDS011;57397;50.096;14.404;2023-06-14T09:59:04;2.40;;;2.10;;
65656;SDS011;57397;50.096;14.404;2023-06-14T10:01:34;2.40;;;2.20;;
65656;SDS011;57397;50.096;14.404;2023-06-14T10:04:02;2.20;;;2.00;;
65656;SDS011;57397;50.096;14.404;2023-06-14T10:06:37;2.33;;;2.00;;
65656;SDS011;57397;50.096;14.404;2023-06-14T10:09:06;2.10;;;1.90;;
65656;SDS011;57397;50.096;14.404;2023-06-14T10:11:32;3.22;;;2.22;;
65656;SDS011;57397;50.096;14.404;2023-06-14T10:14:00;2.13;;;1.90;;
65656;SDS011;57397;50.096;14.404;2023-06-14T10:24:03;2.33;;;2.03;;
65656;SDS011;57397;50.096;14.404;2023-06-14T10:26:30;3.53;;;2.10;;
65656;SDS011;57397;50.096;14.404;2023-06-14T10:29:00;3.10;;;2.10;;
65656;SDS011;57397;50.096;14.404;2023-06-14T10:34:09;2.00;;;1.80;;
65656;SDS011;57397;50.096;14.404;2023-06-14T10:36:35;2.55;;;2.10;;
65656;SDS011;57397;50.096;14.404;2023-06-14T10:39:01;2.30;;;2.00;;
65656;SDS011;57397;50.096;14.404;2023-06-14T10:41:37;3.17;;;2.15;;
65656;SDS011;57397;50.096;14.404;2023-06-14T10:46:48;2.92;;;2.10;;
65656;SDS011;57397;50.096;14.404;2023-06-14T10:49:20;2.33;;;2.05;;
65656;SDS011;57397;50.096;14.404;2023-06-14T10:52:10;2.30;;;2.10;;
65656;SDS011;57397;50.096;14.404;2023-06-14T10:57:32;2.95;;;2.03;;
65656;SDS011;57397;50.096;14.404;2023-06-14T10:59:59;3.83;;;2.20;;
65656;SDS011;57397;50.096;14.404;2023-06-14T11:05:14;2.42;;;1.88;;
65656;SDS011;57397;50.096;14.404;2023-06-14T11:10:40;2.60;;;2.30;;
65656;SDS011;57397;50.096;14.404;2023-06-14T11:13:08;2.70;;;2.33;;
65656;SDS011;57397;50.096;14.404;2023-06-14T11:15:35;3.15;;;2.10;;
65656;SDS011;57397;50.096;14.404;2023-06-14T11:18:05;2.85;;;2.15;;
65656;SDS011;57397;50.096;14.404;2023-06-14T11:20:33;2.25;;;2.05;;
65656;SDS011;57397;50.096;14.404;2023-06-14T11:23:00;2.40;;;2.20;;
65656;SDS011;57397;50.096;14.404;2023-06-14T11:25:28;2.45;;;2.17;;
65656;SDS011;57397;50.096;14.404;2023-06-14T11:27:54;2.60;;;2.10;;
65656;SDS011;57397;50.096;14.404;2023-06-14T11:30:20;2.95;;;2.20;;
65656;SDS011;57397;50.096;14.404;2023-06-14T11:32:49;2.55;;;2.20;;
65656;SDS011;57397;50.096;14.404;2023-06-14T11:35:17;2.88;;;2.20;;
65656;SDS011;57397;50.096;14.404;2023-06-14T11:37:43;2.70;;;2.40;;
65656;SDS011;57397;50.096;14.404;2023-06-14T11:40:09;2.85;;;2.40;;
65656;SDS011;57397;50.096;14.404;2023-06-14T11:42:39;3.03;;;2.22;;
65656;SDS011;57397;50.096;14.404;2023-06-14T11:45:09;2.60;;;2.17;;
65656;SDS011;57397;50.096;14.404;2023-06-14T11:47:36;2.67;;;2.00;;
65656;SDS011;57397;50.096;14.404;2023-06-14T11:50:03;2.78;;;2.20;;
65656;SDS011;57397;50.096;14.404;2023-06-14T11:52:32;2.53;;;2.17;;
65656;SDS011;57397;50.096;14.404;2023-06-14T11:54:57;2.42;;;2.10;;
65656;SDS011;57397;50.096;14.404;2023-06-14T11:57:25;2.58;;;1.90;;
65656;SDS011;57397;50.096;14.404;2023-06-14T11:59:51;2.53;;;2.20;;
65656;SDS011;57397;50.096;14.404;2023-06-14T12:02:17;2.25;;;2.03;;
65656;SDS011;57397;50.096;14.404;2023-06-14T12:04:44;2.40;;;2.10;;
65656;SDS011;57397;50.096;14.404;2023-06-14T12:07:12;2.90;;;2.30;;
65656;SDS011;57397;50.096;14.404;2023-06-14T12:10:03;2.50;;;2.08;;
65656;SDS011;57397;50.096;14.404;2023-06-14T12:12:34;2.33;;;2.13;;
65656;SDS011;57397;50.096;14.404;2023-06-14T12:15:02;2.13;;;1.92;;
65656;SDS011;57397;50.096;14.404;2023-06-14T12:17:31;3.58;;;2.30;;
65656;SDS011;57397;50.096;14.404;2023-06-14T12:19:57;2.35;;;2.15;;
65656;SDS011;57397;50.096;14.404;2023-06-14T12:22:23;2.65;;;2.13;;
65656;SDS011;57397;50.096;14.404;2023-06-14T12:24:48;2.30;;;2.10;;
65656;SDS011;57397;50.096;14.404;2023-06-14T12:27:14;2.17;;;1.90;;
65656;SDS011;57397;50.096;14.404;2023-06-14T12:29:44;2.60;;;1.90;;
65656;SDS011;57397;50.096;14.404;2023-06-14T12:32:09;2.40;;;2.00;;
65656;SDS011;57397;50.096;14.404;2023-06-14T12:34:36;2.42;;;2.13;;
65656;SDS011;57397;50.096;14.404;2023-06-14T12:37:02;2.55;;;2.10;;
65656;SDS011;57397;50.096;14.404;2023-06-14T12:39:31;2.60;;;2.20;;
65656;SDS011;57397;50.096;14.404;2023-06-14T12:41:57;2.30;;;2.10;;
65656;SDS011;57397;50.096;14.404;2023-06-14T12:44:23;2.45;;;2.10;;
65656;SDS011;57397;50.096;14.404;2023-06-14T12:46:49;2.53;;;2.10;;
65656;SDS011;57397;50.096;14.404;2023-06-14T12:49:16;2.72;;;2.13;;
65656;SDS011;57397;50.096;14.404;2023-06-14T12:51:42;2.47;;;2.28;;
65656;SDS011;57397;50.096;14.404;2023-06-14T12:54:07;3.17;;;2.00;;
65656;SDS011;57397;50.096;14.404;2023-06-14T12:56:33;2.28;;;2.03;;
65656;SDS011;57397;50.096;14.404;2023-06-14T12:59:00;2.47;;;2.17;;
65656;SDS011;57397;50.096;14.404;2023-06-14T13:01:26;2.00;;;1.80;;
65656;SDS011;57397;50.096;14.404;2023-06-14T13:03:51;2.33;;;2.13;;
65656;SDS011;57397;50.096;14.404;2023-06-14T13:06:20;2.50;;;2.20;;
65656;SDS011;57397;50.096;14.404;2023-06-14T13:08:47;3.47;;;2.20;;
65656;SDS011;57397;50.096;14.404;2023-06-14T13:11:13;2.20;;;2.00;;
65656;SDS011;57397;50.096;14.404;2023-06-14T13:13:40;2.35;;;2.10;;
65656;SDS011;57397;50.096;14.404;2023-06-14T13:16:06;2.40;;;2.15;;
65656;SDS011;57397;50.096;14.404;2023-06-14T13:18:33;2.50;;;2.30;;
65656;SDS011;57397;50.096;14.404;2023-06-14T13:20:58;2.58;;;2.20;;
65656;SDS011;57397;50.096;14.404;2023-06-14T13:23:25;2.78;;;1.92;;
65656;SDS011;57397;50.096;14.404;2023-06-14T13:25:51;2.40;;;2.20;;
65656;SDS011;57397;50.096;14.404;2023-06-14T13:28:16;2.42;;;2.17;;
65656;SDS011;57397;50.096;14.404;2023-06-14T13:30:42;2.30;;;2.10;;
65656;SDS011;57397;50.096;14.404;2023-06-14T13:33:08;2.30;;;2.10;;
65656;SDS011;57397;50.096;14.404;2023-06-14T13:35:33;2.33;;;2.13;;
65656;SDS011;57397;50.096;14.404;2023-06-14T13:37:59;2.30;;;2.10;;
65656;SDS011;57397;50.096;14.404;2023-06-14T13:40:24;2.45;;;2.25;;
65656;SDS011;57397;50.096;14.404;2023-06-14T13:42:51;2.45;;;2.13;;
65656;SDS011;57397;50.096;14.404;2023-06-14T13:45:16;2.22;;;2.03;;
65656;SDS011;57397;50.096;14.404;2023-06-14T13:47:42;2.38;;;2.17;;
65656;SDS011;57397;50.096;14.404;2023-06-14T13:50:08;3.15;;;2.30;;
65656;SDS011;57397;50.096;14.404;2023-06-14T13:52:33;3.05;;;2.17;;
65656;SDS011;57397;50.096;14.404;2023-06-14T13:55:00;2.40;;;2.20;;
65656;SDS011;57397;50.096;14.404;2023-06-14T13:57:25;2.78;;;2.17;;
65656;SDS011;57397;50.096;14.404;2023-06-14T13:59:51;2.30;;;2.10;;
65656;SDS011;57397;50.096;14.404;2023-06-14T14:02:18;2.75;;;2.47;;
65656;SDS011;57397;50.096;14.404;2023-06-14T14:04:44;2.45;;;2.20;;
65656;SDS011;57397;50.096;14.404;2023-06-14T14:07:16;3.05;;;2.30;;
65656;SDS011;57397;50.096;14.404;2023-06-14T14:09:41;2.40;;;2.20;;
65656;SDS011;57397;50.096;14.404;2023-06-14T14:12:08;3.22;;;2.20;;
65656;SDS011;57397;50.096;14.404;2023-06-14T14:14:33;2.22;;;2.03;;
65656;SDS011;57397;50.096;14.404;2023-06-14T14:16:59;2.33;;;2.13;;
65656;SDS011;57397;50.096;14.404;2023-06-14T14:19:24;2.58;;;2.38;;
65656;SDS011;57397;50.096;14.404;2023-06-14T14:21:50;2.55;;;2.28;;
65656;SDS011;57397;50.096;14.404;2023-06-14T14:24:18;2.47;;;2.28;;
65656;SDS011;57397;50.096;14.404;2023-06-14T14:26:44;2.83;;;2.30;;
65656;SDS011;57397;50.096;14.404;2023-06-14T14:29:12;3.13;;;2.35;;
65656;SDS011;57397;50.096;14.404;2023-06-14T14:31:39;2.47;;;2.25;;
65656;SDS011;57397;50.096;14.404;2023-06-14T14:34:05;4.13;;;2.60;;
65656;SDS011;57397;50.096;14.404;2023-06-14T14:36:31;3.00;;;2.70;;
65656;SDS011;57397;50.096;14.404;2023-06-14T14:38:59;3.13;;;2.83;;
65656;SDS011;57397;50.096;14.404;2023-06-14T14:41:25;2.38;;;2.17;;
65656;SDS011;57397;50.096;14.404;2023-06-14T14:43:50;2.80;;;2.40;;
65656;SDS011;57397;50.096;14.404;2023-06-14T14:46:16;2.67;;;2.40;;
65656;SDS011;57397;50.096;14.404;2023-06-14T14:48:42;2.65;;;2.25;;
65656;SDS011;57397;50.096;14.404;2023-06-14T14:51:07;2.58;;;2.38;;
65656;SDS011;57397;50.096;14.404;2023-06-14T14:53:34;2.85;;;2.55;;
65656;SDS011;57397;50.096;14.404;2023-06-14T14:56:00;2.97;;;2.50;;